sensor_id;sensor_type;location;lat;lon;timestamp;P1;durP1;ratioP1;P2;durP2;ratioP2
27113;SDS011;14648;49.730;8.614;2023-01-20T00:01:28;9.93;;;7.13;;
27113;SDS011;14648;49.730;8.614;2023-01-20T00:03:54;9.47;;;6.90;;
27113;SDS011;14648;49.730;8.614;2023-01-20T00:06:22;11.07;;;7.20;;
27113;SDS011;14648;49.730;8.614;2023-01-20T00:08:52;15.63;;;7.50;;
27113;SDS011;14648;49.730;8.614;2023-01-20T00:11:20;10.37;;;7.50;;
27113;SDS011;14648;49.730;8.614;2023-01-20T00:13:46;20.40;;;8.70;;
27113;SDS011;14648;49.730;8.614;2023-01-20T00:16:12;9.43;;;6.67;;
27113;SDS011;14648;49.730;8.614;2023-01-20T00:18:38;11.70;;;7.50;;
27113;SDS011;14648;49.730;8.614;2023-01-20T00:21:06;10.80;;;7.13;;
27113;SDS011;14648;49.730;8.614;2023-01-20T00:23:35;10.47;;;7.40;;
27113;SDS011;14648;49.730;8.614;2023-01-20T00:26:06;11.30;;;6.50;;
27113;SDS011;14648;49.730;8.614;2023-01-20T00:28:37;11.70;;;7.63;;
27113;SDS011;14648;49.730;8.614;2023-01-20T00:33:42;14.07;;;7.00;;
27113;SDS011;14648;49.730;8.614;2023-01-20T00:36:10;10.37;;;6.80;;
27113;SDS011;14648;49.730;8.614;2023-01-20T00:38:37;13.50;;;7.63;;
27113;SDS011;14648;49.730;8.614;2023-01-20T00:41:03;15.20;;;8.00;;
27113;SDS011;14648;49.730;8.614;2023-01-20T00:43:29;11.80;;;7.07;;
27113;SDS011;14648;49.730;8.614;2023-01-20T00:45:55;9.60;;;6.67;;
27113;SDS011;14648;49.730;8.614;2023-01-20T00:48:20;12.37;;;7.10;;
27113;SDS011;14648;49.730;8.614;2023-01-20T00:50:46;13.10;;;7.50;;
27113;SDS011;14648;49.730;8.614;2023-01-20T00:53:12;11.83;;;7.67;;
27113;SDS011;14648;49.730;8.614;2023-01-20T00:55:37;14.90;;;6.93;;
27113;SDS011;14648;49.730;8.614;2023-01-20T00:58:03;14.83;;;9.37;;
27113;SDS011;14648;49.730;8.614;2023-01-20T01:00:29;13.27;;;7.27;;
27113;SDS011;14648;49.730;8.614;2023-01-20T01:02:55;16.73;;;7.70;;
27113;SDS011;14648;49.730;8.614;2023-01-20T01:05:21;12.40;;;8.20;;
27113;SDS011;14648;49.730;8.614;2023-01-20T01:07:47;16.17;;;9.53;;
27113;SDS011;14648;49.730;8.614;2023-01-20T01:10:13;16.63;;;11.00;;
27113;SDS011;14648;49.730;8.614;2023-01-20T01:12:39;22.80;;;11.70;;
27113;SDS011;14648;49.730;8.614;2023-01-20T01:15:04;16.17;;;10.20;;
27113;SDS011;14648;49.730;8.614;2023-01-20T01:17:31;17.17;;;10.07;;
27113;SDS011;14648;49.730;8.614;2023-01-20T01:19:57;21.20;;;12.47;;
27113;SDS011;14648;49.730;8.614;2023-01-20T01:22:22;20.83;;;10.00;;
27113;SDS011;14648;49.730;8.614;2023-01-20T01:24:48;21.13;;;10.00;;
27113;SDS011;14648;49.730;8.614;2023-01-20T01:27:14;22.97;;;10.70;;
27113;SDS011;14648;49.730;8.614;2023-01-20T01:29:40;22.80;;;11.97;;
27113;SDS011;14648;49.730;8.614;2023-01-20T01:32:06;18.20;;;9.77;;
27113;SDS011;14648;49.730;8.614;2023-01-20T01:34:32;18.73;;;9.40;;
27113;SDS011;14648;49.730;8.614;2023-01-20T01:36:58;18.33;;;9.13;;
27113;SDS011;14648;49.730;8.614;2023-01-20T01:39:25;16.20;;;8.90;;
27113;SDS011;14648;49.730;8.614;2023-01-20T01:41:51;18.40;;;9.63;;
27113;SDS011;14648;49.730;8.614;2023-01-20T01:44:17;14.33;;;8.90;;
27113;SDS011;14648;49.730;8.614;2023-01-20T01:46:44;19.53;;;9.37;;
27113;SDS011;14648;49.730;8.614;2023-01-20T01:49:12;15.07;;;9.27;;
27113;SDS011;14648;49.730;8.614;2023-01-20T01:51:49;14.90;;;8.83;;
27113;SDS011;14648;49.730;8.614;2023-01-20T01:54:23;15.80;;;9.03;;
27113;SDS011;14648;49.730;8.614;2023-01-20T01:56:53;13.23;;;7.33;;
27113;SDS011;14648;49.730;8.614;2023-01-20T01:59:19;14.73;;;9.20;;
27113;SDS011;14648;49.730;8.614;2023-01-20T02:01:47;12.00;;;7.83;;
27113;SDS011;14648;49.730;8.614;2023-01-20T02:04:17;12.47;;;7.83;;
27113;SDS011;14648;49.730;8.614;2023-01-20T02:06:50;15.50;;;9.27;;
27113;SDS011;14648;49.730;8.614;2023-01-20T02:09:19;12.90;;;8.90;;
27113;SDS011;14648;49.730;8.614;2023-01-20T02:11:47;12.07;;;7.03;;
27113;SDS011;14648;49.730;8.614;2023-01-20T02:14:20;14.87;;;8.87;;
27113;SDS011;14648;49.730;8.614;2023-01-20T02:16:57;12.40;;;8.70;;
27113;SDS011;14648;49.730;8.614;2023-01-20T02:19:49;14.20;;;8.10;;
27113;SDS011;14648;49.730;8.614;2023-01-20T02:25:45;18.43;;;10.20;;
27113;SDS011;14648;49.730;8.614;2023-01-20T02:28:51;16.97;;;9.20;;
27113;SDS011;14648;49.730;8.614;2023-01-20T02:35:10;16.87;;;8.50;;
27113;SDS011;14648;49.730;8.614;2023-01-20T02:40:43;14.17;;;8.80;;
27113;SDS011;14648;49.730;8.614;2023-01-20T02:43:30;15.83;;;9.60;;
27113;SDS011;14648;49.730;8.614;2023-01-20T02:46:03;14.97;;;9.60;;
27113;SDS011;14648;49.730;8.614;2023-01-20T02:48:43;16.30;;;10.20;;
27113;SDS011;14648;49.730;8.614;2023-01-20T02:51:38;15.17;;;9.80;;
27113;SDS011;14648;49.730;8.614;2023-01-20T02:54:17;15.13;;;10.30;;
27113;SDS011;14648;49.730;8.614;2023-01-20T02:56:47;15.23;;;9.40;;
27113;SDS011;14648;49.730;8.614;2023-01-20T02:59:16;17.17;;;9.60;;
27113;SDS011;14648;49.730;8.614;2023-01-20T03:01:58;12.70;;;7.93;;
27113;SDS011;14648;49.730;8.614;2023-01-20T03:04:36;16.80;;;9.60;;
27113;SDS011;14648;49.730;8.614;2023-01-20T03:07:08;14.17;;;9.70;;
27113;SDS011;14648;49.730;8.614;2023-01-20T03:09:38;18.43;;;10.23;;
27113;SDS011;14648;49.730;8.614;2023-01-20T03:12:23;20.40;;;9.87;;
27113;SDS011;14648;49.730;8.614;2023-01-20T03:15:11;26.27;;;10.60;;
27113;SDS011;14648;49.730;8.614;2023-01-20T03:17:37;25.13;;;10.77;;
27113;SDS011;14648;49.730;8.614;2023-01-20T03:20:03;19.40;;;10.90;;
27113;SDS011;14648;49.730;8.614;2023-01-20T03:22:29;22.63;;;12.37;;
27113;SDS011;14648;49.730;8.614;2023-01-20T03:24:56;21.07;;;12.03;;
27113;SDS011;14648;49.730;8.614;2023-01-20T03:27:24;18.40;;;11.07;;
27113;SDS011;14648;49.730;8.614;2023-01-20T03:29:50;22.20;;;11.40;;
27113;SDS011;14648;49.730;8.614;2023-01-20T03:32:16;16.97;;;10.70;;
27113;SDS011;14648;49.730;8.614;2023-01-20T03:34:50;13.53;;;8.67;;
27113;SDS011;14648;49.730;8.614;2023-01-20T03:37:17;14.10;;;9.20;;
27113;SDS011;14648;49.730;8.614;2023-01-20T03:39:43;15.63;;;8.60;;
27113;SDS011;14648;49.730;8.614;2023-01-20T03:42:11;18.50;;;8.80;;
27113;SDS011;14648;49.730;8.614;2023-01-20T03:45:08;12.53;;;9.43;;
27113;SDS011;14648;49.730;8.614;2023-01-20T03:48:01;13.23;;;8.97;;
27113;SDS011;14648;49.730;8.614;2023-01-20T03:50:46;13.23;;;8.80;;
27113;SDS011;14648;49.730;8.614;2023-01-20T03:58:56;13.30;;;8.73;;
27113;SDS011;14648;49.730;8.614;2023-01-20T04:01:30;21.30;;;10.07;;
27113;SDS011;14648;49.730;8.614;2023-01-20T04:04:00;21.80;;;11.00;;
27113;SDS011;14648;49.730;8.614;2023-01-20T04:06:29;15.60;;;9.13;;
27113;SDS011;14648;49.730;8.614;2023-01-20T04:09:04;18.43;;;9.23;;
27113;SDS011;14648;49.730;8.614;2023-01-20T04:11:38;18.13;;;10.60;;
27113;SDS011;14648;49.730;8.614;2023-01-20T04:14:03;14.27;;;9.90;;
27113;SDS011;14648;49.730;8.614;2023-01-20T04:16:32;17.70;;;10.10;;
27113;SDS011;14648;49.730;8.614;2023-01-20T04:18:58;18.27;;;10.60;;
27113;SDS011;14648;49.730;8.614;2023-01-20T04:21:34;15.43;;;8.83;;
27113;SDS011;14648;49.730;8.614;2023-01-20T04:24:07;15.60;;;9.70;;
27113;SDS011;14648;49.730;8.614;2023-01-20T04:26:41;17.90;;;9.93;;
27113;SDS011;14648;49.730;8.614;2023-01-20T04:29:07;12.73;;;8.73;;
27113;SDS011;14648;49.730;8.614;2023-01-20T04:31:35;13.47;;;8.03;;
27113;SDS011;14648;49.730;8.614;2023-01-20T04:34:02;17.10;;;8.60;;
27113;SDS011;14648;49.730;8.614;2023-01-20T04:36:32;19.40;;;9.03;;
27113;SDS011;14648;49.730;8.614;2023-01-20T04:38:57;14.13;;;8.27;;
27113;SDS011;14648;49.730;8.614;2023-01-20T04:41:23;13.13;;;9.23;;
27113;SDS011;14648;49.730;8.614;2023-01-20T04:43:49;15.17;;;7.50;;
27113;SDS011;14648;49.730;8.614;2023-01-20T04:46:14;11.87;;;7.63;;
27113;SDS011;14648;49.730;8.614;2023-01-20T04:48:40;11.20;;;7.80;;
27113;SDS011;14648;49.730;8.614;2023-01-20T04:51:08;11.97;;;8.07;;
27113;SDS011;14648;49.730;8.614;2023-01-20T04:53:34;12.17;;;8.47;;
27113;SDS011;14648;49.730;8.614;2023-01-20T04:56:00;13.40;;;9.47;;
27113;SDS011;14648;49.730;8.614;2023-01-20T04:58:26;17.73;;;8.17;;
27113;SDS011;14648;49.730;8.614;2023-01-20T05:00:52;17.10;;;8.70;;
27113;SDS011;14648;49.730;8.614;2023-01-20T05:03:18;12.70;;;7.40;;
27113;SDS011;14648;49.730;8.614;2023-01-20T05:05:53;11.93;;;7.53;;
27113;SDS011;14648;49.730;8.614;2023-01-20T05:08:19;15.13;;;7.60;;
27113;SDS011;14648;49.730;8.614;2023-01-20T05:10:44;10.03;;;6.80;;
27113;SDS011;14648;49.730;8.614;2023-01-20T05:13:10;16.53;;;8.87;;
27113;SDS011;14648;49.730;8.614;2023-01-20T05:15:38;18.07;;;7.70;;
27113;SDS011;14648;49.730;8.614;2023-01-20T05:18:04;16.17;;;8.60;;
27113;SDS011;14648;49.730;8.614;2023-01-20T05:20:31;13.67;;;7.60;;
27113;SDS011;14648;49.730;8.614;2023-01-20T05:22:56;14.63;;;8.03;;
27113;SDS011;14648;49.730;8.614;2023-01-20T05:25:22;14.60;;;7.60;;
27113;SDS011;14648;49.730;8.614;2023-01-20T05:27:48;11.00;;;7.70;;
27113;SDS011;14648;49.730;8.614;2023-01-20T05:30:15;13.63;;;7.37;;
27113;SDS011;14648;49.730;8.614;2023-01-20T05:32:41;11.03;;;8.00;;
27113;SDS011;14648;49.730;8.614;2023-01-20T05:35:09;11.07;;;7.03;;
27113;SDS011;14648;49.730;8.614;2023-01-20T05:37:35;12.37;;;7.90;;
27113;SDS011;14648;49.730;8.614;2023-01-20T05:40:01;14.67;;;8.47;;
27113;SDS011;14648;49.730;8.614;2023-01-20T05:42:27;11.77;;;7.63;;
27113;SDS011;14648;49.730;8.614;2023-01-20T05:44:53;16.03;;;8.73;;
27113;SDS011;14648;49.730;8.614;2023-01-20T05:47:18;15.13;;;8.33;;
27113;SDS011;14648;49.730;8.614;2023-01-20T05:49:44;15.00;;;8.20;;
27113;SDS011;14648;49.730;8.614;2023-01-20T05:52:09;13.90;;;8.20;;
27113;SDS011;14648;49.730;8.614;2023-01-20T05:54:35;10.90;;;7.80;;
27113;SDS011;14648;49.730;8.614;2023-01-20T05:57:01;12.77;;;7.97;;
27113;SDS011;14648;49.730;8.614;2023-01-20T05:59:28;13.40;;;9.20;;
27113;SDS011;14648;49.730;8.614;2023-01-20T06:01:53;18.53;;;10.23;;
27113;SDS011;14648;49.730;8.614;2023-01-20T06:04:19;17.57;;;11.97;;
27113;SDS011;14648;49.730;8.614;2023-01-20T06:06:45;18.17;;;11.70;;
27113;SDS011;14648;49.730;8.614;2023-01-20T06:09:10;17.73;;;10.07;;
27113;SDS011;14648;49.730;8.614;2023-01-20T06:11:36;21.43;;;11.93;;
27113;SDS011;14648;49.730;8.614;2023-01-20T06:14:02;16.20;;;11.67;;
27113;SDS011;14648;49.730;8.614;2023-01-20T06:16:27;19.30;;;11.47;;
27113;SDS011;14648;49.730;8.614;2023-01-20T06:18:53;22.17;;;12.10;;
27113;SDS011;14648;49.730;8.614;2023-01-20T06:21:19;21.43;;;12.07;;
27113;SDS011;14648;49.730;8.614;2023-01-20T06:23:45;19.70;;;10.60;;
27113;SDS011;14648;49.730;8.614;2023-01-20T06:26:12;20.80;;;11.70;;
27113;SDS011;14648;49.730;8.614;2023-01-20T06:28:39;25.33;;;13.73;;
27113;SDS011;14648;49.730;8.614;2023-01-20T06:31:09;21.87;;;11.90;;
27113;SDS011;14648;49.730;8.614;2023-01-20T06:33:37;25.07;;;12.57;;
27113;SDS011;14648;49.730;8.614;2023-01-20T06:36:04;25.13;;;11.03;;
27113;SDS011;14648;49.730;8.614;2023-01-20T06:38:31;16.70;;;9.83;;
27113;SDS011;14648;49.730;8.614;2023-01-20T06:41:03;14.60;;;9.53;;
27113;SDS011;14648;49.730;8.614;2023-01-20T06:43:31;13.17;;;9.30;;
27113;SDS011;14648;49.730;8.614;2023-01-20T06:46:03;20.03;;;9.60;;
27113;SDS011;14648;49.730;8.614;2023-01-20T06:48:31;17.40;;;9.60;;
27113;SDS011;14648;49.730;8.614;2023-01-20T06:51:04;12.40;;;8.83;;
27113;SDS011;14648;49.730;8.614;2023-01-20T06:53:37;15.23;;;7.97;;
27113;SDS011;14648;49.730;8.614;2023-01-20T06:56:03;14.33;;;8.17;;
27113;SDS011;14648;49.730;8.614;2023-01-20T06:58:29;17.17;;;9.77;;
27113;SDS011;14648;49.730;8.614;2023-01-20T07:00:57;20.70;;;9.87;;
27113;SDS011;14648;49.730;8.614;2023-01-20T07:03:41;14.00;;;9.20;;
27113;SDS011;14648;49.730;8.614;2023-01-20T07:06:19;24.67;;;9.27;;
27113;SDS011;14648;49.730;8.614;2023-01-20T07:09:02;14.30;;;7.83;;
27113;SDS011;14648;49.730;8.614;2023-01-20T07:11:29;13.47;;;9.30;;
27113;SDS011;14648;49.730;8.614;2023-01-20T07:14:00;16.50;;;8.23;;
27113;SDS011;14648;49.730;8.614;2023-01-20T07:16:27;15.23;;;8.40;;
27113;SDS011;14648;49.730;8.614;2023-01-20T07:18:53;14.77;;;9.27;;
27113;SDS011;14648;49.730;8.614;2023-01-20T07:21:19;17.00;;;8.30;;
27113;SDS011;14648;49.730;8.614;2023-01-20T07:23:45;17.90;;;8.40;;
27113;SDS011;14648;49.730;8.614;2023-01-20T07:26:13;16.40;;;9.00;;
27113;SDS011;14648;49.730;8.614;2023-01-20T07:28:43;14.27;;;8.20;;
27113;SDS011;14648;49.730;8.614;2023-01-20T07:31:27;18.10;;;9.33;;
27113;SDS011;14648;49.730;8.614;2023-01-20T07:33:55;14.90;;;8.33;;
27113;SDS011;14648;49.730;8.614;2023-01-20T07:36:22;12.90;;;9.40;;
27113;SDS011;14648;49.730;8.614;2023-01-20T07:38:49;17.60;;;9.47;;
27113;SDS011;14648;49.730;8.614;2023-01-20T07:41:22;17.50;;;9.23;;
27113;SDS011;14648;49.730;8.614;2023-01-20T07:43:50;16.83;;;9.27;;
27113;SDS011;14648;49.730;8.614;2023-01-20T07:46:17;15.90;;;9.17;;
27113;SDS011;14648;49.730;8.614;2023-01-20T07:48:44;15.13;;;9.10;;
27113;SDS011;14648;49.730;8.614;2023-01-20T07:51:12;14.67;;;8.93;;
27113;SDS011;14648;49.730;8.614;2023-01-20T07:53:40;21.57;;;11.50;;
27113;SDS011;14648;49.730;8.614;2023-01-20T07:56:16;27.30;;;13.00;;
27113;SDS011;14648;49.730;8.614;2023-01-20T07:58:58;25.90;;;15.40;;
27113;SDS011;14648;49.730;8.614;2023-01-20T08:01:31;34.77;;;16.43;;
27113;SDS011;14648;49.730;8.614;2023-01-20T08:03:58;33.67;;;15.70;;
27113;SDS011;14648;49.730;8.614;2023-01-20T08:06:28;30.80;;;17.23;;
27113;SDS011;14648;49.730;8.614;2023-01-20T08:08:54;37.43;;;19.00;;
27113;SDS011;14648;49.730;8.614;2023-01-20T08:11:20;29.03;;;16.07;;
27113;SDS011;14648;49.730;8.614;2023-01-20T08:13:47;35.07;;;17.90;;
27113;SDS011;14648;49.730;8.614;2023-01-20T08:16:15;31.90;;;17.00;;
27113;SDS011;14648;49.730;8.614;2023-01-20T08:18:43;34.30;;;16.97;;
27113;SDS011;14648;49.730;8.614;2023-01-20T08:21:19;32.17;;;16.57;;
27113;SDS011;14648;49.730;8.614;2023-01-20T08:23:53;27.07;;;15.40;;
27113;SDS011;14648;49.730;8.614;2023-01-20T08:26:20;26.47;;;15.47;;
27113;SDS011;14648;49.730;8.614;2023-01-20T08:28:49;24.23;;;13.87;;
27113;SDS011;14648;49.730;8.614;2023-01-20T08:31:17;21.47;;;13.70;;
27113;SDS011;14648;49.730;8.614;2023-01-20T08:33:45;22.87;;;13.30;;
27113;SDS011;14648;49.730;8.614;2023-01-20T08:36:15;26.77;;;14.30;;
27113;SDS011;14648;49.730;8.614;2023-01-20T08:38:45;18.80;;;13.43;;
27113;SDS011;14648;49.730;8.614;2023-01-20T08:41:18;23.43;;;14.37;;
27113;SDS011;14648;49.730;8.614;2023-01-20T08:43:47;30.60;;;15.07;;
27113;SDS011;14648;49.730;8.614;2023-01-20T08:46:14;25.30;;;13.57;;
27113;SDS011;14648;49.730;8.614;2023-01-20T08:48:44;27.03;;;14.20;;
27113;SDS011;14648;49.730;8.614;2023-01-20T08:51:12;29.47;;;15.17;;
27113;SDS011;14648;49.730;8.614;2023-01-20T08:53:44;26.30;;;15.00;;
27113;SDS011;14648;49.730;8.614;2023-01-20T08:56:11;21.00;;;11.93;;
27113;SDS011;14648;49.730;8.614;2023-01-20T08:58:37;23.70;;;14.80;;
27113;SDS011;14648;49.730;8.614;2023-01-20T09:01:11;30.90;;;14.40;;
27113;SDS011;14648;49.730;8.614;2023-01-20T09:03:44;24.60;;;13.53;;
27113;SDS011;14648;49.730;8.614;2023-01-20T09:06:10;25.03;;;13.70;;
27113;SDS011;14648;49.730;8.614;2023-01-20T09:08:38;29.70;;;14.80;;
27113;SDS011;14648;49.730;8.614;2023-01-20T09:11:06;28.77;;;12.70;;
27113;SDS011;14648;49.730;8.614;2023-01-20T09:13:38;28.10;;;13.30;;
27113;SDS011;14648;49.730;8.614;2023-01-20T09:16:04;21.90;;;13.50;;
27113;SDS011;14648;49.730;8.614;2023-01-20T09:18:31;26.40;;;13.33;;
27113;SDS011;14648;49.730;8.614;2023-01-20T09:20:58;19.70;;;13.07;;
27113;SDS011;14648;49.730;8.614;2023-01-20T09:23:26;24.27;;;12.03;;
27113;SDS011;14648;49.730;8.614;2023-01-20T09:25:53;23.97;;;12.80;;
27113;SDS011;14648;49.730;8.614;2023-01-20T09:28:24;23.37;;;13.60;;
27113;SDS011;14648;49.730;8.614;2023-01-20T09:31:01;26.30;;;14.00;;
27113;SDS011;14648;49.730;8.614;2023-01-20T09:33:34;28.43;;;13.87;;
27113;SDS011;14648;49.730;8.614;2023-01-20T09:36:04;24.97;;;13.77;;
27113;SDS011;14648;49.730;8.614;2023-01-20T09:38:32;23.23;;;12.70;;
27113;SDS011;14648;49.730;8.614;2023-01-20T09:41:30;23.03;;;13.37;;
27113;SDS011;14648;49.730;8.614;2023-01-20T09:44:18;24.20;;;14.40;;
27113;SDS011;14648;49.730;8.614;2023-01-20T09:47:30;23.57;;;13.77;;
27113;SDS011;14648;49.730;8.614;2023-01-20T09:53:35;24.97;;;14.20;;
27113;SDS011;14648;49.730;8.614;2023-01-20T09:56:16;23.20;;;15.33;;
27113;SDS011;14648;49.730;8.614;2023-01-20T09:58:47;25.40;;;15.93;;
27113;SDS011;14648;49.730;8.614;2023-01-20T10:01:40;27.13;;;16.10;;
27113;SDS011;14648;49.730;8.614;2023-01-20T10:05:10;29.33;;;15.03;;
27113;SDS011;14648;49.730;8.614;2023-01-20T10:07:19;24.40;;;15.80;;
27113;SDS011;14648;49.730;8.614;2023-01-20T10:10:13;25.77;;;14.03;;
27113;SDS011;14648;49.730;8.614;2023-01-20T10:15:34;27.23;;;17.20;;
27113;SDS011;14648;49.730;8.614;2023-01-20T10:20:39;28.47;;;17.90;;
27113;SDS011;14648;49.730;8.614;2023-01-20T10:29:27;20.93;;;14.67;;
27113;SDS011;14648;49.730;8.614;2023-01-20T10:32:35;28.53;;;15.97;;
27113;SDS011;14648;49.730;8.614;2023-01-20T10:35:17;27.03;;;15.07;;
27113;SDS011;14648;49.730;8.614;2023-01-20T10:37:47;30.60;;;14.50;;
27113;SDS011;14648;49.730;8.614;2023-01-20T10:43:00;22.63;;;15.17;;
27113;SDS011;14648;49.730;8.614;2023-01-20T10:48:47;25.93;;;14.63;;
27113;SDS011;14648;49.730;8.614;2023-01-20T10:51:57;24.50;;;14.50;;
27113;SDS011;14648;49.730;8.614;2023-01-20T10:54:53;26.67;;;13.93;;
27113;SDS011;14648;49.730;8.614;2023-01-20T10:57:40;24.90;;;14.13;;
27113;SDS011;14648;49.730;8.614;2023-01-20T11:00:08;23.13;;;14.10;;
27113;SDS011;14648;49.730;8.614;2023-01-20T11:02:54;26.80;;;13.97;;
27113;SDS011;14648;49.730;8.614;2023-01-20T11:05:30;21.43;;;13.67;;
27113;SDS011;14648;49.730;8.614;2023-01-20T11:08:02;22.67;;;14.93;;
27113;SDS011;14648;49.730;8.614;2023-01-20T11:10:52;24.37;;;13.90;;
27113;SDS011;14648;49.730;8.614;2023-01-20T11:13:23;24.53;;;15.07;;
27113;SDS011;14648;49.730;8.614;2023-01-20T11:15:52;20.53;;;12.47;;
27113;SDS011;14648;49.730;8.614;2023-01-20T11:18:24;22.23;;;14.70;;
27113;SDS011;14648;49.730;8.614;2023-01-20T11:21:01;19.00;;;13.43;;
27113;SDS011;14648;49.730;8.614;2023-01-20T11:23:46;26.50;;;13.80;;
27113;SDS011;14648;49.730;8.614;2023-01-20T11:26:23;21.77;;;14.00;;
27113;SDS011;14648;49.730;8.614;2023-01-20T11:28:55;20.50;;;12.83;;
27113;SDS011;14648;49.730;8.614;2023-01-20T11:31:40;20.30;;;12.43;;
27113;SDS011;14648;49.730;8.614;2023-01-20T11:34:49;26.17;;;13.80;;
27113;SDS011;14648;49.730;8.614;2023-01-20T11:42:26;23.17;;;11.37;;
27113;SDS011;14648;49.730;8.614;2023-01-20T11:44:58;15.57;;;11.20;;
27113;SDS011;14648;49.730;8.614;2023-01-20T11:47:34;19.70;;;12.63;;
27113;SDS011;14648;49.730;8.614;2023-01-20T11:52:37;15.57;;;10.40;;
27113;SDS011;14648;49.730;8.614;2023-01-20T11:57:36;17.80;;;11.03;;
27113;SDS011;14648;49.730;8.614;2023-01-20T12:02:59;15.50;;;10.43;;
27113;SDS011;14648;49.730;8.614;2023-01-20T12:05:50;13.57;;;10.37;;
27113;SDS011;14648;49.730;8.614;2023-01-20T12:11:15;17.47;;;11.10;;
27113;SDS011;14648;49.730;8.614;2023-01-20T12:22:45;16.60;;;10.83;;
27113;SDS011;14648;49.730;8.614;2023-01-20T12:27:54;14.10;;;9.97;;
27113;SDS011;14648;49.730;8.614;2023-01-20T12:33:03;14.53;;;9.10;;
27113;SDS011;14648;49.730;8.614;2023-01-20T12:38:38;15.10;;;9.33;;
27113;SDS011;14648;49.730;8.614;2023-01-20T12:44:38;11.23;;;8.30;;
27113;SDS011;14648;49.730;8.614;2023-01-20T12:50:33;11.67;;;7.57;;
27113;SDS011;14648;49.730;8.614;2023-01-20T13:02:39;10.97;;;7.90;;
27113;SDS011;14648;49.730;8.614;2023-01-20T13:05:46;29.07;;;8.87;;
27113;SDS011;14648;49.730;8.614;2023-01-20T13:08:55;15.80;;;9.43;;
27113;SDS011;14648;49.730;8.614;2023-01-20T13:14:54;13.60;;;8.37;;
27113;SDS011;14648;49.730;8.614;2023-01-20T13:20:42;16.77;;;10.43;;
27113;SDS011;14648;49.730;8.614;2023-01-20T13:23:17;26.53;;;10.53;;
27113;SDS011;14648;49.730;8.614;2023-01-20T13:25:48;16.20;;;9.43;;
27113;SDS011;14648;49.730;8.614;2023-01-20T13:28:16;15.03;;;9.47;;
27113;SDS011;14648;49.730;8.614;2023-01-20T13:30:46;24.00;;;10.47;;
27113;SDS011;14648;49.730;8.614;2023-01-20T13:36:20;21.07;;;9.50;;
27113;SDS011;14648;49.730;8.614;2023-01-20T13:38:49;15.87;;;9.67;;
27113;SDS011;14648;49.730;8.614;2023-01-20T13:42:22;10.73;;;8.20;;
27113;SDS011;14648;49.730;8.614;2023-01-20T13:47:50;14.37;;;9.43;;
27113;SDS011;14648;49.730;8.614;2023-01-20T13:50:45;16.70;;;9.90;;
27113;SDS011;14648;49.730;8.614;2023-01-20T13:58:17;18.23;;;9.37;;
27113;SDS011;14648;49.730;8.614;2023-01-20T14:00:58;16.83;;;9.00;;
27113;SDS011;14648;49.730;8.614;2023-01-20T14:03:35;14.67;;;8.40;;
27113;SDS011;14648;49.730;8.614;2023-01-20T14:06:06;15.90;;;8.13;;
27113;SDS011;14648;49.730;8.614;2023-01-20T14:08:45;11.87;;;7.60;;
27113;SDS011;14648;49.730;8.614;2023-01-20T14:11:13;12.90;;;6.90;;
27113;SDS011;14648;49.730;8.614;2023-01-20T14:13:54;10.10;;;6.63;;
27113;SDS011;14648;49.730;8.614;2023-01-20T14:16:26;19.30;;;7.10;;
27113;SDS011;14648;49.730;8.614;2023-01-20T14:21:57;7.40;;;6.10;;
27113;SDS011;14648;49.730;8.614;2023-01-20T14:24:43;11.43;;;7.07;;
27113;SDS011;14648;49.730;8.614;2023-01-20T14:29:46;9.67;;;6.70;;
27113;SDS011;14648;49.730;8.614;2023-01-20T14:34:53;8.07;;;5.13;;
27113;SDS011;14648;49.730;8.614;2023-01-20T14:37:36;9.87;;;6.27;;
27113;SDS011;14648;49.730;8.614;2023-01-20T14:42:53;12.20;;;6.13;;
27113;SDS011;14648;49.730;8.614;2023-01-20T14:45:42;14.47;;;6.57;;
27113;SDS011;14648;49.730;8.614;2023-01-20T14:48:11;15.43;;;6.30;;
27113;SDS011;14648;49.730;8.614;2023-01-20T14:50:40;6.93;;;5.87;;
27113;SDS011;14648;49.730;8.614;2023-01-20T14:53:11;8.47;;;6.10;;
27113;SDS011;14648;49.730;8.614;2023-01-20T14:55:41;9.60;;;6.00;;
27113;SDS011;14648;49.730;8.614;2023-01-20T14:58:21;8.07;;;6.00;;
27113;SDS011;14648;49.730;8.614;2023-01-20T15:00:48;11.17;;;5.77;;
27113;SDS011;14648;49.730;8.614;2023-01-20T15:03:25;7.23;;;5.17;;
27113;SDS011;14648;49.730;8.614;2023-01-20T15:08:47;9.77;;;6.07;;
27113;SDS011;14648;49.730;8.614;2023-01-20T15:13:42;11.30;;;6.67;;
27113;SDS011;14648;49.730;8.614;2023-01-20T15:16:24;12.60;;;6.77;;
27113;SDS011;14648;49.730;8.614;2023-01-20T15:24:12;11.50;;;7.17;;
27113;SDS011;14648;49.730;8.614;2023-01-20T15:26:55;14.80;;;7.57;;
27113;SDS011;14648;49.730;8.614;2023-01-20T15:31:58;14.03;;;8.00;;
27113;SDS011;14648;49.730;8.614;2023-01-20T15:34:26;14.03;;;8.00;;
27113;SDS011;14648;49.730;8.614;2023-01-20T15:36:53;13.30;;;7.47;;
27113;SDS011;14648;49.730;8.614;2023-01-20T15:39:20;11.30;;;7.03;;
27113;SDS011;14648;49.730;8.614;2023-01-20T15:41:49;10.93;;;7.67;;
27113;SDS011;14648;49.730;8.614;2023-01-20T15:44:21;9.97;;;7.77;;
27113;SDS011;14648;49.730;8.614;2023-01-20T15:46:48;10.70;;;8.20;;
27113;SDS011;14648;49.730;8.614;2023-01-20T15:49:15;11.10;;;7.57;;
27113;SDS011;14648;49.730;8.614;2023-01-20T15:51:42;25.23;;;8.50;;
27113;SDS011;14648;49.730;8.614;2023-01-20T15:54:09;11.13;;;7.23;;
27113;SDS011;14648;49.730;8.614;2023-01-20T15:56:38;12.40;;;7.87;;
27113;SDS011;14648;49.730;8.614;2023-01-20T15:59:11;17.30;;;7.77;;
27113;SDS011;14648;49.730;8.614;2023-01-20T16:01:42;16.97;;;8.80;;
27113;SDS011;14648;49.730;8.614;2023-01-20T16:04:16;10.73;;;6.47;;
27113;SDS011;14648;49.730;8.614;2023-01-20T16:06:43;14.93;;;8.30;;
27113;SDS011;14648;49.730;8.614;2023-01-20T16:09:20;15.90;;;8.00;;
27113;SDS011;14648;49.730;8.614;2023-01-20T16:11:50;22.60;;;9.97;;
27113;SDS011;14648;49.730;8.614;2023-01-20T16:14:16;12.80;;;8.00;;
27113;SDS011;14648;49.730;8.614;2023-01-20T16:16:43;12.63;;;8.10;;
27113;SDS011;14648;49.730;8.614;2023-01-20T16:19:11;13.10;;;8.27;;
27113;SDS011;14648;49.730;8.614;2023-01-20T16:21:37;16.47;;;9.00;;
27113;SDS011;14648;49.730;8.614;2023-01-20T16:24:04;12.90;;;8.93;;
27113;SDS011;14648;49.730;8.614;2023-01-20T16:26:33;12.37;;;8.03;;
27113;SDS011;14648;49.730;8.614;2023-01-20T16:29:00;9.80;;;7.00;;
27113;SDS011;14648;49.730;8.614;2023-01-20T16:31:27;14.67;;;9.27;;
27113;SDS011;14648;49.730;8.614;2023-01-20T16:33:54;10.87;;;7.90;;
27113;SDS011;14648;49.730;8.614;2023-01-20T16:36:20;15.87;;;8.80;;
27113;SDS011;14648;49.730;8.614;2023-01-20T16:38:49;16.13;;;8.07;;
27113;SDS011;14648;49.730;8.614;2023-01-20T16:41:19;12.90;;;8.40;;
27113;SDS011;14648;49.730;8.614;2023-01-20T16:43:50;12.03;;;7.23;;
27113;SDS011;14648;49.730;8.614;2023-01-20T16:46:21;11.53;;;6.70;;
27113;SDS011;14648;49.730;8.614;2023-01-20T16:48:53;14.20;;;7.60;;
27113;SDS011;14648;49.730;8.614;2023-01-20T16:51:23;11.97;;;7.77;;
27113;SDS011;14648;49.730;8.614;2023-01-20T16:53:51;16.77;;;8.50;;
27113;SDS011;14648;49.730;8.614;2023-01-20T16:56:18;14.37;;;9.67;;
27113;SDS011;14648;49.730;8.614;2023-01-20T16:58:52;11.77;;;8.03;;
27113;SDS011;14648;49.730;8.614;2023-01-20T17:01:19;11.77;;;7.40;;
27113;SDS011;14648;49.730;8.614;2023-01-20T17:03:49;16.70;;;8.10;;
27113;SDS011;14648;49.730;8.614;2023-01-20T17:06:18;13.83;;;8.63;;
27113;SDS011;14648;49.730;8.614;2023-01-20T17:08:49;12.03;;;8.37;;